Terminal Aerodrome Forecast
Issued by NWS Goodland, KS

Home | Current Version | Previous Version | Text Only | Print | Product List | Glossary On
Versions: 1 2 3 4 5 6 7 8 9 10 11 12 13
709
FTUS43 KGLD 292334
TAFGLD
TAF
KGLD 292334Z 3000/3024 33006KT 1SM -SN OVC009
      TEMPO 3000/3002 OVC010
     FM300200 01009KT 2SM -SN OVC003
     FM300900 34012G17KT P6SM VCSH OVC003
     FM301700 34018G25KT P6SM VCSH OVC008
     FM302200 34018G25KT P6SM VCSH OVC015=

USA.gov is the U.S. government's official web portal to all federal, state and local government web resources and services.